createdAt,value
2024-01-03T00:01:18.626Z,14.73
2024-01-03T00:04:28.565Z,15.48
2024-01-03T00:07:34.079Z,15.48
2024-01-03T00:10:54.649Z,16.60
2024-01-03T00:14:27.757Z,13.10
2024-01-03T00:17:33.549Z,15.88
2024-01-03T00:20:37.417Z,14.77
2024-01-03T00:23:50.171Z,14.65
2024-01-03T00:26:54.045Z,16.62
2024-01-03T00:30:06.316Z,14.45
2024-01-03T00:33:14.345Z,14.55
2024-01-03T00:36:18.075Z,11.68
2024-01-03T00:39:43.884Z,12.57
2024-01-03T00:42:47.383Z,14.25
2024-01-03T00:45:51.175Z,11.45
2024-01-03T00:48:56.898Z,11.48
2024-01-03T00:52:05.154Z,12.85
2024-01-03T00:55:10.944Z,12.68
2024-01-03T00:58:16.430Z,11.68
2024-01-03T01:04:26.387Z,16.23
2024-01-03T01:07:30.624Z,10.20
2024-01-03T01:10:33.687Z,11.07
2024-01-03T01:13:37.345Z,8.68
2024-01-03T01:16:41.784Z,9.60
2024-01-03T01:19:46.125Z,8.45
2024-01-03T01:22:50.919Z,9.77
2024-01-03T01:25:55.108Z,8.48
2024-01-03T01:29:19.601Z,8.82
2024-01-03T01:32:23.250Z,10.18
2024-01-03T01:35:29.785Z,8.63
2024-01-03T01:38:34.329Z,10.63
2024-01-03T01:41:39.331Z,8.23
2024-01-03T01:44:44.405Z,10.23
2024-01-03T01:47:47.929Z,8.15
2024-01-03T01:50:52.171Z,8.60
2024-01-03T01:53:59.237Z,9.50
2024-01-03T01:57:05.242Z,11.98
2024-01-03T02:00:11.628Z,9.05
2024-01-03T02:03:15.662Z,7.32
2024-01-03T02:06:21.763Z,7.50
2024-01-03T02:09:28.387Z,9.20
2024-01-03T02:12:31.995Z,9.10
2024-01-03T02:15:37.686Z,7.35
2024-01-03T02:18:46.071Z,10.38
2024-01-03T02:21:54.177Z,8.10
2024-01-03T02:25:32.244Z,9.23
2024-01-03T02:28:36.328Z,7.75
2024-01-03T02:32:19.498Z,8.77
2024-01-03T02:35:24.967Z,12.20
2024-01-03T02:38:32.029Z,8.95
2024-01-03T02:41:36.564Z,10.35
2024-01-03T02:44:43.871Z,12.40
2024-01-03T02:47:49.466Z,10.10
2024-01-03T02:50:53.212Z,9.63
2024-01-03T02:53:57.734Z,7.05
2024-01-03T02:57:00.927Z,9.50
2024-01-03T03:00:13.766Z,7.03
2024-01-03T03:03:16.297Z,9.32
2024-01-03T03:06:19.626Z,9.90
2024-01-03T03:09:23.498Z,9.63
2024-01-03T03:12:26.801Z,8.45
2024-01-03T03:15:29.949Z,7.15
2024-01-03T03:18:34.319Z,8.68
2024-01-03T03:21:37.589Z,6.40
2024-01-03T03:24:44.119Z,10.07
2024-01-03T03:27:50.301Z,7.93
2024-01-03T03:31:17.443Z,8.93
2024-01-03T03:34:58.419Z,6.05
2024-01-03T03:38:24.151Z,6.37
2024-01-03T03:45:05.570Z,7.30
2024-01-03T03:48:09.570Z,6.07
2024-01-03T03:51:14.018Z,6.10
2024-01-03T03:54:19.976Z,10.00
2024-01-03T03:57:55.869Z,8.18
2024-01-03T04:01:04.308Z,6.50
2024-01-03T04:04:07.700Z,8.52
2024-01-03T04:07:11.717Z,9.27
2024-01-03T04:10:17.449Z,9.02
2024-01-03T04:13:20.706Z,10.13
2024-01-03T04:16:25.007Z,8.05
2024-01-03T04:19:28.590Z,6.93
2024-01-03T04:22:54.575Z,11.02
2024-01-03T04:26:18.236Z,6.70
2024-01-03T04:29:25.903Z,7.93
2024-01-03T04:32:29.766Z,8.52
2024-01-03T04:35:36.568Z,7.53
2024-01-03T04:38:39.717Z,10.45
2024-01-03T04:42:15.114Z,6.32
2024-01-03T04:45:18.873Z,6.22
2024-01-03T04:48:23.770Z,9.20
2024-01-03T04:51:27.579Z,8.52
2024-01-03T04:54:30.882Z,8.63
2024-01-03T04:57:35.820Z,5.78
2024-01-03T05:00:38.816Z,7.85
2024-01-03T05:03:46.029Z,6.90
2024-01-03T05:06:52.381Z,5.12
2024-01-03T05:09:57.619Z,7.22
2024-01-03T05:13:03.113Z,5.40
2024-01-03T05:16:07.958Z,5.10
2024-01-03T05:19:11.375Z,6.93
2024-01-03T05:22:15.371Z,6.43
2024-01-03T05:25:18.674Z,5.43
2024-01-03T05:28:22.886Z,5.28
2024-01-03T05:31:29.714Z,7.35
2024-01-03T05:34:33.819Z,6.93
2024-01-03T05:37:40.941Z,8.35
2024-01-03T05:41:08.778Z,6.60
2024-01-03T05:44:14.462Z,7.12
2024-01-03T05:50:22.521Z,9.30
2024-01-03T05:53:26.846Z,8.07
2024-01-03T05:56:33.344Z,11.25
2024-01-03T05:59:36.975Z,9.90
2024-01-03T06:02:40.334Z,11.07
2024-01-03T06:05:46.120Z,11.48
2024-01-03T06:09:09.099Z,10.10
2024-01-03T06:12:15.480Z,11.73
2024-01-03T06:15:19.088Z,8.15
2024-01-03T06:18:23.284Z,8.25
2024-01-03T06:21:28.125Z,9.73
2024-01-03T06:24:32.479Z,10.15
2024-01-03T06:27:35.598Z,10.88
2024-01-03T06:30:44.620Z,10.63
2024-01-03T06:33:51.985Z,12.18
2024-01-03T06:36:56.056Z,11.45
2024-01-03T06:40:01.912Z,11.93
2024-01-03T06:43:29.735Z,13.38
2024-01-03T06:49:44.264Z,11.10
2024-01-03T06:52:48.534Z,10.93
2024-01-03T06:56:01.692Z,12.82
2024-01-03T06:59:06.163Z,15.88
2024-01-03T07:02:35.880Z,11.45
2024-01-03T07:05:42.773Z,10.13
2024-01-03T07:08:47.362Z,11.80
2024-01-03T07:11:52.545Z,13.00
2024-01-03T07:14:57.723Z,13.82
2024-01-03T07:18:01.127Z,23.27
2024-01-03T07:21:36.817Z,15.20
2024-01-03T07:24:41.173Z,16.80
2024-01-03T07:27:45.321Z,15.10
2024-01-03T07:30:49.194Z,17.02
2024-01-03T07:33:54.542Z,32.70
2024-01-03T07:36:58.299Z,38.65
2024-01-03T07:40:01.644Z,28.00
2024-01-03T07:43:05.327Z,23.35
2024-01-03T07:46:30.049Z,30.55
2024-01-03T07:49:33.808Z,30.30
2024-01-03T07:52:37.207Z,21.58
2024-01-03T07:55:41.144Z,24.45
2024-01-03T07:58:48.602Z,18.05
2024-01-03T08:02:23.978Z,15.88
2024-01-03T08:06:31.745Z,13.50
2024-01-03T08:09:56.341Z,13.93
2024-01-03T08:13:43.967Z,19.10
2024-01-03T08:21:15.729Z,7.05
2024-01-03T08:24:50.954Z,6.43
2024-01-03T08:27:55.750Z,4.50
2024-01-03T08:31:20.649Z,4.05
2024-01-03T08:34:48.087Z,3.70
2024-01-03T08:38:11.471Z,4.87
2024-01-03T08:41:38.740Z,3.95
2024-01-03T08:45:47.146Z,3.83
2024-01-03T08:49:21.997Z,2.87
2024-01-03T08:52:50.623Z,3.53
2024-01-03T08:56:34.271Z,2.83
2024-01-03T09:00:10.349Z,3.28
2024-01-03T09:03:55.072Z,3.78
2024-01-03T09:11:00.177Z,2.22
2024-01-03T09:14:35.969Z,2.08
2024-01-03T09:18:12.324Z,2.72
2024-01-03T09:21:56.549Z,3.53
2024-01-03T09:25:23.258Z,4.30
2024-01-03T09:28:49.501Z,3.92
2024-01-03T09:32:32.510Z,3.95
2024-01-03T09:36:37.102Z,6.20
2024-01-03T09:40:02.000Z,2.85
2024-01-03T09:43:26.910Z,4.80
2024-01-03T09:46:51.331Z,4.25
2024-01-03T09:49:55.636Z,3.22
2024-01-03T09:53:02.812Z,2.72
2024-01-03T09:57:09.302Z,3.62
2024-01-03T10:00:12.927Z,5.40
2024-01-03T10:03:19.813Z,4.00
2024-01-03T10:06:29.309Z,3.97
2024-01-03T10:09:54.575Z,3.67
2024-01-03T10:12:58.577Z,4.60
2024-01-03T10:16:28.600Z,4.97
2024-01-03T10:19:35.830Z,4.22
2024-01-03T10:23:16.706Z,3.33
2024-01-03T10:26:42.850Z,4.18
2024-01-03T10:29:52.190Z,2.95
2024-01-03T10:33:04.475Z,1.85
2024-01-03T10:36:12.055Z,2.58
2024-01-03T10:39:20.253Z,2.78
2024-01-03T10:42:25.663Z,6.97
2024-01-03T10:46:09.611Z,1.83
2024-01-03T10:49:45.939Z,2.17
2024-01-03T10:53:11.005Z,2.55
2024-01-03T10:56:54.101Z,3.87
2024-01-03T11:00:26.415Z,2.58
2024-01-03T11:04:11.047Z,1.85
2024-01-03T11:08:04.541Z,2.95
2024-01-03T11:12:51.281Z,3.95
2024-01-03T11:20:30.099Z,3.97
2024-01-03T11:24:09.597Z,3.20
2024-01-03T11:27:24.584Z,2.75
2024-01-03T11:30:43.935Z,3.30
2024-01-03T11:33:47.817Z,3.50
2024-01-03T11:36:54.333Z,3.12
2024-01-03T11:39:59.180Z,4.00
2024-01-03T11:43:03.219Z,2.45
2024-01-03T11:46:13.452Z,3.12
2024-01-03T11:49:22.179Z,4.50
2024-01-03T11:52:26.907Z,1.92
2024-01-03T11:55:51.608Z,2.55
2024-01-03T11:58:56.691Z,4.18
2024-01-03T12:02:08.773Z,3.53
2024-01-03T12:05:19.037Z,2.45
2024-01-03T12:08:48.134Z,1.83
2024-01-03T12:11:59.021Z,1.87
2024-01-03T12:15:10.444Z,3.28
2024-01-03T12:18:49.085Z,2.53
2024-01-03T12:22:26.208Z,4.78
2024-01-03T12:25:31.480Z,8.02
2024-01-03T12:28:34.545Z,4.10
2024-01-03T12:31:59.585Z,5.15
2024-01-03T12:35:28.155Z,3.58
2024-01-03T12:38:59.503Z,2.33
2024-01-03T12:42:11.744Z,2.72
2024-01-03T12:45:45.502Z,2.97
2024-01-03T12:49:08.304Z,2.08
2024-01-03T12:52:30.626Z,3.97
2024-01-03T12:55:34.055Z,2.53
2024-01-03T12:58:37.951Z,2.50
2024-01-03T13:01:41.358Z,5.93
2024-01-03T13:04:46.637Z,3.95
2024-01-03T13:07:49.430Z,3.25
2024-01-03T13:10:54.698Z,3.40
2024-01-03T13:13:59.158Z,5.25
2024-01-03T13:17:24.963Z,4.55
2024-01-03T13:21:11.124Z,4.28
2024-01-03T13:29:23.061Z,6.75
2024-01-03T13:32:37.570Z,5.62
2024-01-03T13:40:11.576Z,5.03
2024-01-03T13:43:39.883Z,2.85
2024-01-03T13:46:42.965Z,3.80
2024-01-03T13:49:50.841Z,3.75
2024-01-03T13:53:25.994Z,3.03
2024-01-03T13:56:30.601Z,2.62
2024-01-03T13:59:36.185Z,5.62
2024-01-03T14:02:59.608Z,3.60
2024-01-03T14:06:40.168Z,5.47
2024-01-03T14:10:24.606Z,3.83
2024-01-03T14:13:54.191Z,2.65
2024-01-03T14:17:34.965Z,3.97
2024-01-03T14:21:00.631Z,4.57
2024-01-03T14:24:16.480Z,4.47
2024-01-03T14:28:01.514Z,5.22
2024-01-03T14:31:54.412Z,6.87
2024-01-03T14:35:16.956Z,5.82
2024-01-03T14:38:23.052Z,7.40
2024-01-03T14:41:27.408Z,5.32
2024-01-03T14:44:37.567Z,6.32
2024-01-03T14:48:00.138Z,7.18
2024-01-03T14:51:07.618Z,5.47
2024-01-03T14:54:14.859Z,6.00
2024-01-03T14:57:58.489Z,6.28
2024-01-03T15:01:05.201Z,5.43
2024-01-03T15:04:09.312Z,7.75
2024-01-03T15:07:15.185Z,6.97
2024-01-03T15:10:23.148Z,9.48
2024-01-03T15:13:28.340Z,9.73
2024-01-03T15:20:57.030Z,10.70
2024-01-03T15:24:02.949Z,10.15
2024-01-03T15:27:07.152Z,10.05
2024-01-03T15:30:35.944Z,6.80
2024-01-03T15:33:39.648Z,8.77
2024-01-03T15:36:42.856Z,7.53
2024-01-03T15:39:48.080Z,10.15
2024-01-03T15:42:51.537Z,7.70
2024-01-03T15:45:54.526Z,8.20
2024-01-03T15:48:58.569Z,13.55
2024-01-03T15:52:09.299Z,12.95
2024-01-03T15:55:15.210Z,11.98
2024-01-03T15:58:21.244Z,10.35
2024-01-03T16:01:24.297Z,9.38
2024-01-03T16:04:30.539Z,9.70
2024-01-03T16:07:35.184Z,8.18
2024-01-03T16:10:39.375Z,9.48
2024-01-03T16:13:42.566Z,7.35
2024-01-03T16:16:46.696Z,7.25
2024-01-03T16:19:55.019Z,8.00
2024-01-03T16:23:01.370Z,6.55
2024-01-03T16:26:04.433Z,8.73
2024-01-03T16:29:07.950Z,7.93
2024-01-03T16:32:11.709Z,6.80
2024-01-03T16:35:16.938Z,5.15
2024-01-03T16:38:19.549Z,7.43
2024-01-03T16:41:23.046Z,5.70
2024-01-03T16:44:28.980Z,6.53
2024-01-03T16:47:40.837Z,5.18
2024-01-03T16:50:43.940Z,6.45
2024-01-03T16:53:49.047Z,5.60
2024-01-03T16:56:57.201Z,6.40
2024-01-03T17:00:01.283Z,8.77
2024-01-03T17:03:15.249Z,11.55
2024-01-03T17:06:50.984Z,22.85
2024-01-03T17:09:59.730Z,29.42
2024-01-03T17:13:03.700Z,27.50
2024-01-03T17:16:28.323Z,25.65
2024-01-03T17:19:51.713Z,29.42
2024-01-03T17:22:59.563Z,27.80
2024-01-03T17:26:03.142Z,29.47
2024-01-03T17:29:08.531Z,22.95
2024-01-03T17:32:12.256Z,24.90
2024-01-03T17:35:19.570Z,27.85
2024-01-03T17:38:24.056Z,22.40
2024-01-03T17:41:31.579Z,26.37
2024-01-03T17:44:37.056Z,26.17
2024-01-03T17:48:13.607Z,23.27
2024-01-03T17:51:41.420Z,24.30
2024-01-03T17:54:47.589Z,26.98
2024-01-03T17:57:51.376Z,24.67
2024-01-03T18:00:57.185Z,16.35
2024-01-03T18:07:05.061Z,17.87
2024-01-03T18:10:18.837Z,18.30
2024-01-03T18:13:41.594Z,17.48
2024-01-03T18:16:47.796Z,14.20
2024-01-03T18:19:50.824Z,30.80
2024-01-03T18:22:57.133Z,24.60
2024-01-03T18:26:00.213Z,25.50
2024-01-03T18:29:05.139Z,28.52
2024-01-03T18:32:16.208Z,25.23
2024-01-03T18:35:19.884Z,24.48
2024-01-03T18:38:23.187Z,28.75
2024-01-03T18:41:27.220Z,27.65
2024-01-03T18:44:53.393Z,33.03
2024-01-03T18:47:57.482Z,40.78
2024-01-03T18:51:01.924Z,59.22
2024-01-03T18:54:10.500Z,70.40
2024-01-03T18:57:17.924Z,46.80
2024-01-03T19:01:31.308Z,40.40
2024-01-03T19:04:44.429Z,46.47
2024-01-03T19:08:13.180Z,44.53
2024-01-03T19:11:17.475Z,34.30
2024-01-03T19:14:21.188Z,34.35
2024-01-03T19:17:25.796Z,33.30
2024-01-03T19:20:33.637Z,33.17
2024-01-03T19:23:42.305Z,31.98
2024-01-03T19:26:49.904Z,30.60
2024-01-03T19:30:00.499Z,24.10
2024-01-03T19:33:07.008Z,29.75
2024-01-03T19:36:16.766Z,19.37
2024-01-03T19:39:41.810Z,24.87
2024-01-03T19:42:53.262Z,23.23
2024-01-03T19:46:16.282Z,18.52
2024-01-03T19:49:24.554Z,22.95
2024-01-03T19:52:30.821Z,20.62
2024-01-03T19:55:53.679Z,18.55
2024-01-03T19:59:25.180Z,18.98
2024-01-03T20:02:35.940Z,16.25
2024-01-03T20:10:19.195Z,19.02
2024-01-03T20:13:42.600Z,18.10
2024-01-03T20:16:48.008Z,21.35
2024-01-03T20:19:52.863Z,18.92
2024-01-03T20:23:00.532Z,16.87
2024-01-03T20:26:17.353Z,14.30
2024-01-03T20:29:23.663Z,17.58
2024-01-03T20:36:06.367Z,12.05
2024-01-03T20:39:12.435Z,13.90
2024-01-03T20:42:19.678Z,15.25
2024-01-03T20:45:24.335Z,14.30
2024-01-03T20:48:28.480Z,18.40
2024-01-03T20:51:31.761Z,16.37
2024-01-03T20:54:38.792Z,14.13
2024-01-03T20:58:01.354Z,17.77
2024-01-03T21:01:09.098Z,17.12
2024-01-03T21:04:14.537Z,13.20
2024-01-03T21:10:27.201Z,15.10
2024-01-03T21:13:32.442Z,14.30
2024-01-03T21:16:36.086Z,13.43
2024-01-03T21:19:43.063Z,12.25
2024-01-03T21:22:46.845Z,9.77
2024-01-03T21:25:51.673Z,10.68
2024-01-03T21:28:55.550Z,11.02
2024-01-03T21:32:07.819Z,10.60
2024-01-03T21:35:17.150Z,7.32
2024-01-03T21:38:27.825Z,7.25
2024-01-03T21:41:32.574Z,6.03
2024-01-03T21:44:39.138Z,8.55
2024-01-03T21:48:05.049Z,6.72
2024-01-03T21:56:12.677Z,7.65
2024-01-03T21:59:17.436Z,5.40
2024-01-03T22:02:20.564Z,8.02
2024-01-03T22:05:27.673Z,7.35
2024-01-03T22:09:12.688Z,12.70
2024-01-03T22:12:49.771Z,7.03
2024-01-03T22:15:56.653Z,7.78
2024-01-03T22:19:22.739Z,8.52
2024-01-03T22:22:27.661Z,6.95
2024-01-03T22:25:40.583Z,9.23
2024-01-03T22:28:43.656Z,9.38
2024-01-03T22:31:47.803Z,7.40
2024-01-03T22:35:10.326Z,10.07
2024-01-03T22:38:13.725Z,9.50
2024-01-03T22:41:19.515Z,8.73
2024-01-03T22:44:24.716Z,9.05
2024-01-03T22:47:27.731Z,9.38
2024-01-03T22:50:33.610Z,8.68
2024-01-03T22:53:36.664Z,10.45
2024-01-03T22:56:43.277Z,10.60
2024-01-03T22:59:48.839Z,8.50
2024-01-03T23:02:53.712Z,8.43
2024-01-03T23:05:58.605Z,9.90
2024-01-03T23:09:07.724Z,10.00
2024-01-03T23:15:59.210Z,8.57
2024-01-03T23:19:04.229Z,9.57
2024-01-03T23:22:08.880Z,9.90
2024-01-03T23:25:15.073Z,12.07
2024-01-03T23:28:18.382Z,11.52
2024-01-03T23:31:21.995Z,9.52
2024-01-03T23:34:30.265Z,12.65
2024-01-03T23:37:35.409Z,11.63
2024-01-03T23:40:41.236Z,10.45
2024-01-03T23:43:47.826Z,8.43
2024-01-03T23:47:11.684Z,9.82
2024-01-03T23:50:17.454Z,7.03
2024-01-03T23:53:20.864Z,6.75
2024-01-03T23:56:45.704Z,8.57
2024-01-03T23:59:48.945Z,6.32
